sensor_id;sensor_type;location;lat;lon;timestamp;P1;durP1;ratioP1;P2;durP2;ratioP2
75682;SDS011;64295;44.772;39.872;2023-03-03T00:00:50;34.10;;;10.05;;
75682;SDS011;64295;44.772;39.872;2023-03-03T00:03:17;23.83;;;10.02;;
75682;SDS011;64295;44.772;39.872;2023-03-03T00:05:45;30.55;;;11.73;;
75682;SDS011;64295;44.772;39.872;2023-03-03T00:08:12;30.55;;;11.68;;
75682;SDS011;64295;44.772;39.872;2023-03-03T00:10:38;31.40;;;10.50;;
75682;SDS011;64295;44.772;39.872;2023-03-03T00:13:16;30.02;;;10.68;;
75682;SDS011;64295;44.772;39.872;2023-03-03T00:15:44;25.10;;;9.95;;
75682;SDS011;64295;44.772;39.872;2023-03-03T00:18:33;26.98;;;11.27;;
75682;SDS011;64295;44.772;39.872;2023-03-03T00:20:58;37.63;;;12.30;;
75682;SDS011;64295;44.772;39.872;2023-03-03T00:23:28;28.90;;;12.40;;
75682;SDS011;64295;44.772;39.872;2023-03-03T00:26:03;20.40;;;10.90;;
75682;SDS011;64295;44.772;39.872;2023-03-03T00:28:53;31.48;;;11.02;;
75682;SDS011;64295;44.772;39.872;2023-03-03T00:31:34;30.50;;;12.27;;
75682;SDS011;64295;44.772;39.872;2023-03-03T00:34:09;25.20;;;11.02;;
75682;SDS011;64295;44.772;39.872;2023-03-03T00:36:57;34.75;;;11.10;;
75682;SDS011;64295;44.772;39.872;2023-03-03T00:39:36;25.70;;;12.15;;
75682;SDS011;64295;44.772;39.872;2023-03-03T00:42:12;24.52;;;12.30;;
75682;SDS011;64295;44.772;39.872;2023-03-03T00:44:55;39.65;;;11.68;;
75682;SDS011;64295;44.772;39.872;2023-03-03T00:47:58;36.80;;;14.65;;
75682;SDS011;64295;44.772;39.872;2023-03-03T00:50:22;43.60;;;15.65;;
75682;SDS011;64295;44.772;39.872;2023-03-03T00:55:54;38.42;;;14.32;;
75682;SDS011;64295;44.772;39.872;2023-03-03T00:58:21;33.35;;;13.98;;
75682;SDS011;64295;44.772;39.872;2023-03-03T01:00:49;30.08;;;13.38;;
75682;SDS011;64295;44.772;39.872;2023-03-03T01:03:21;29.55;;;13.82;;
75682;SDS011;64295;44.772;39.872;2023-03-03T01:05:50;27.15;;;13.32;;
75682;SDS011;64295;44.772;39.872;2023-03-03T01:08:17;34.53;;;12.75;;
75682;SDS011;64295;44.772;39.872;2023-03-03T01:10:45;26.95;;;12.57;;
75682;SDS011;64295;44.772;39.872;2023-03-03T01:13:21;29.92;;;13.63;;
75682;SDS011;64295;44.772;39.872;2023-03-03T01:15:59;27.40;;;14.52;;
75682;SDS011;64295;44.772;39.872;2023-03-03T01:18:26;26.23;;;10.85;;
75682;SDS011;64295;44.772;39.872;2023-03-03T01:20:52;24.73;;;10.75;;
75682;SDS011;64295;44.772;39.872;2023-03-03T01:23:21;30.73;;;11.07;;
75682;SDS011;64295;44.772;39.872;2023-03-03T01:25:47;22.58;;;9.57;;
75682;SDS011;64295;44.772;39.872;2023-03-03T01:28:16;32.88;;;10.93;;
75682;SDS011;64295;44.772;39.872;2023-03-03T01:30:42;24.52;;;10.20;;
75682;SDS011;64295;44.772;39.872;2023-03-03T01:33:07;26.15;;;11.27;;
75682;SDS011;64295;44.772;39.872;2023-03-03T01:35:33;26.65;;;13.15;;
75682;SDS011;64295;44.772;39.872;2023-03-03T01:38:00;27.25;;;12.10;;
75682;SDS011;64295;44.772;39.872;2023-03-03T01:40:27;22.15;;;10.55;;
75682;SDS011;64295;44.772;39.872;2023-03-03T01:42:55;26.77;;;12.68;;
75682;SDS011;64295;44.772;39.872;2023-03-03T01:45:27;23.85;;;11.02;;
75682;SDS011;64295;44.772;39.872;2023-03-03T01:51:00;23.08;;;10.10;;
75682;SDS011;64295;44.772;39.872;2023-03-03T01:56:03;19.33;;;10.40;;
75682;SDS011;64295;44.772;39.872;2023-03-03T01:58:33;27.08;;;12.32;;
75682;SDS011;64295;44.772;39.872;2023-03-03T02:01:06;30.05;;;11.70;;
75682;SDS011;64295;44.772;39.872;2023-03-03T02:03:39;23.15;;;12.27;;
75682;SDS011;64295;44.772;39.872;2023-03-03T02:06:36;24.17;;;11.38;;
75682;SDS011;64295;44.772;39.872;2023-03-03T02:11:56;32.28;;;16.38;;
75682;SDS011;64295;44.772;39.872;2023-03-03T02:14:25;43.22;;;18.90;;
75682;SDS011;64295;44.772;39.872;2023-03-03T02:16:51;41.92;;;16.73;;
75682;SDS011;64295;44.772;39.872;2023-03-03T02:19:23;40.63;;;18.05;;
75682;SDS011;64295;44.772;39.872;2023-03-03T02:22:00;32.80;;;16.17;;
75682;SDS011;64295;44.772;39.872;2023-03-03T02:26:59;36.55;;;16.17;;
75682;SDS011;64295;44.772;39.872;2023-03-03T02:29:28;36.30;;;15.65;;
75682;SDS011;64295;44.772;39.872;2023-03-03T02:31:53;24.50;;;13.52;;
75682;SDS011;64295;44.772;39.872;2023-03-03T02:34:20;40.90;;;14.43;;
75682;SDS011;64295;44.772;39.872;2023-03-03T02:36:46;31.27;;;13.80;;
75682;SDS011;64295;44.772;39.872;2023-03-03T02:39:20;42.97;;;16.85;;
75682;SDS011;64295;44.772;39.872;2023-03-03T02:41:58;30.88;;;14.63;;
75682;SDS011;64295;44.772;39.872;2023-03-03T02:44:36;30.15;;;13.73;;
75682;SDS011;64295;44.772;39.872;2023-03-03T02:47:02;30.80;;;13.70;;
75682;SDS011;64295;44.772;39.872;2023-03-03T02:49:29;30.38;;;13.82;;
75682;SDS011;64295;44.772;39.872;2023-03-03T02:52:01;24.70;;;13.27;;
75682;SDS011;64295;44.772;39.872;2023-03-03T02:54:40;33.72;;;14.40;;
75682;SDS011;64295;44.772;39.872;2023-03-03T02:57:11;25.40;;;13.40;;
75682;SDS011;64295;44.772;39.872;2023-03-03T02:59:37;25.13;;;12.70;;
75682;SDS011;64295;44.772;39.872;2023-03-03T03:02:12;26.55;;;12.75;;
75682;SDS011;64295;44.772;39.872;2023-03-03T03:04:38;24.42;;;12.32;;
75682;SDS011;64295;44.772;39.872;2023-03-03T03:07:04;31.30;;;12.05;;
75682;SDS011;64295;44.772;39.872;2023-03-03T03:09:32;26.63;;;12.38;;
75682;SDS011;64295;44.772;39.872;2023-03-03T03:11:58;28.23;;;11.98;;
75682;SDS011;64295;44.772;39.872;2023-03-03T03:14:27;32.05;;;11.98;;
75682;SDS011;64295;44.772;39.872;2023-03-03T03:16:54;29.58;;;13.00;;
75682;SDS011;64295;44.772;39.872;2023-03-03T03:19:20;23.38;;;11.85;;
75682;SDS011;64295;44.772;39.872;2023-03-03T03:21:46;24.45;;;12.73;;
75682;SDS011;64295;44.772;39.872;2023-03-03T03:24:13;25.08;;;11.95;;
75682;SDS011;64295;44.772;39.872;2023-03-03T03:26:45;29.10;;;13.60;;
75682;SDS011;64295;44.772;39.872;2023-03-03T03:29:12;31.75;;;13.80;;
75682;SDS011;64295;44.772;39.872;2023-03-03T03:31:38;28.55;;;13.73;;
75682;SDS011;64295;44.772;39.872;2023-03-03T03:34:03;28.08;;;14.63;;
75682;SDS011;64295;44.772;39.872;2023-03-03T03:36:30;26.17;;;12.52;;
75682;SDS011;64295;44.772;39.872;2023-03-03T03:38:56;27.25;;;12.70;;
75682;SDS011;64295;44.772;39.872;2023-03-03T03:41:22;28.00;;;13.88;;
75682;SDS011;64295;44.772;39.872;2023-03-03T03:43:47;26.65;;;12.38;;
75682;SDS011;64295;44.772;39.872;2023-03-03T03:46:14;30.58;;;12.18;;
75682;SDS011;64295;44.772;39.872;2023-03-03T03:48:40;23.90;;;12.05;;
75682;SDS011;64295;44.772;39.872;2023-03-03T03:51:26;25.70;;;10.75;;
75682;SDS011;64295;44.772;39.872;2023-03-03T03:53:52;24.20;;;11.93;;
75682;SDS011;64295;44.772;39.872;2023-03-03T03:56:18;25.48;;;13.50;;
75682;SDS011;64295;44.772;39.872;2023-03-03T03:58:47;25.75;;;12.15;;
75682;SDS011;64295;44.772;39.872;2023-03-03T04:01:16;27.17;;;11.63;;
75682;SDS011;64295;44.772;39.872;2023-03-03T04:03:46;29.95;;;12.02;;
75682;SDS011;64295;44.772;39.872;2023-03-03T04:06:16;25.70;;;14.23;;
75682;SDS011;64295;44.772;39.872;2023-03-03T04:08:43;37.45;;;15.60;;
75682;SDS011;64295;44.772;39.872;2023-03-03T04:11:09;32.90;;;15.18;;
75682;SDS011;64295;44.772;39.872;2023-03-03T04:13:36;35.72;;;17.02;;
75682;SDS011;64295;44.772;39.872;2023-03-03T04:16:05;33.97;;;14.85;;
75682;SDS011;64295;44.772;39.872;2023-03-03T04:18:31;45.90;;;19.45;;
75682;SDS011;64295;44.772;39.872;2023-03-03T04:20:57;39.85;;;19.65;;
75682;SDS011;64295;44.772;39.872;2023-03-03T04:23:25;41.42;;;19.30;;
75682;SDS011;64295;44.772;39.872;2023-03-03T04:25:51;47.25;;;18.70;;
75682;SDS011;64295;44.772;39.872;2023-03-03T04:28:18;31.20;;;14.30;;
75682;SDS011;64295;44.772;39.872;2023-03-03T04:30:45;32.72;;;15.38;;
75682;SDS011;64295;44.772;39.872;2023-03-03T04:33:13;32.15;;;14.13;;
75682;SDS011;64295;44.772;39.872;2023-03-03T04:35:40;29.60;;;13.05;;
75682;SDS011;64295;44.772;39.872;2023-03-03T04:38:06;27.70;;;12.30;;
75682;SDS011;64295;44.772;39.872;2023-03-03T04:40:33;25.92;;;12.25;;
75682;SDS011;64295;44.772;39.872;2023-03-03T04:43:00;33.22;;;13.02;;
75682;SDS011;64295;44.772;39.872;2023-03-03T04:45:26;28.55;;;12.73;;
75682;SDS011;64295;44.772;39.872;2023-03-03T04:47:52;27.48;;;12.70;;
75682;SDS011;64295;44.772;39.872;2023-03-03T04:50:18;26.75;;;12.00;;
75682;SDS011;64295;44.772;39.872;2023-03-03T04:52:45;24.30;;;12.35;;
75682;SDS011;64295;44.772;39.872;2023-03-03T04:55:11;30.88;;;11.77;;
75682;SDS011;64295;44.772;39.872;2023-03-03T04:57:39;26.42;;;12.23;;
75682;SDS011;64295;44.772;39.872;2023-03-03T05:00:05;22.23;;;11.20;;
75682;SDS011;64295;44.772;39.872;2023-03-03T05:02:31;25.77;;;10.88;;
75682;SDS011;64295;44.772;39.872;2023-03-03T05:04:58;26.60;;;11.95;;
75682;SDS011;64295;44.772;39.872;2023-03-03T05:07:24;23.80;;;11.75;;
75682;SDS011;64295;44.772;39.872;2023-03-03T05:09:50;31.15;;;12.55;;
75682;SDS011;64295;44.772;39.872;2023-03-03T05:12:15;28.52;;;11.95;;
75682;SDS011;64295;44.772;39.872;2023-03-03T05:14:41;24.13;;;11.88;;
75682;SDS011;64295;44.772;39.872;2023-03-03T05:17:07;25.15;;;11.50;;
75682;SDS011;64295;44.772;39.872;2023-03-03T05:19:33;26.85;;;12.23;;
75682;SDS011;64295;44.772;39.872;2023-03-03T05:21:59;31.63;;;13.70;;
75682;SDS011;64295;44.772;39.872;2023-03-03T05:24:26;30.13;;;12.68;;
75682;SDS011;64295;44.772;39.872;2023-03-03T05:26:52;26.63;;;12.95;;
75682;SDS011;64295;44.772;39.872;2023-03-03T05:29:18;42.75;;;15.32;;
75682;SDS011;64295;44.772;39.872;2023-03-03T05:31:44;33.50;;;13.18;;
75682;SDS011;64295;44.772;39.872;2023-03-03T05:34:10;24.33;;;12.88;;
75682;SDS011;64295;44.772;39.872;2023-03-03T05:36:36;34.53;;;13.60;;
75682;SDS011;64295;44.772;39.872;2023-03-03T05:39:02;27.27;;;12.10;;
75682;SDS011;64295;44.772;39.872;2023-03-03T05:41:28;27.30;;;12.43;;
75682;SDS011;64295;44.772;39.872;2023-03-03T05:43:54;29.58;;;12.48;;
75682;SDS011;64295;44.772;39.872;2023-03-03T05:46:22;25.52;;;10.65;;
75682;SDS011;64295;44.772;39.872;2023-03-03T05:48:48;31.95;;;13.80;;
75682;SDS011;64295;44.772;39.872;2023-03-03T05:51:13;30.90;;;13.10;;
75682;SDS011;64295;44.772;39.872;2023-03-03T05:53:39;25.45;;;11.63;;
75682;SDS011;64295;44.772;39.872;2023-03-03T05:56:05;28.85;;;12.95;;
75682;SDS011;64295;44.772;39.872;2023-03-03T05:58:31;32.88;;;13.85;;
75682;SDS011;64295;44.772;39.872;2023-03-03T06:00:57;32.92;;;13.23;;
75682;SDS011;64295;44.772;39.872;2023-03-03T06:03:23;28.55;;;13.70;;
75682;SDS011;64295;44.772;39.872;2023-03-03T06:05:49;33.25;;;13.68;;
75682;SDS011;64295;44.772;39.872;2023-03-03T06:08:15;32.60;;;13.77;;
75682;SDS011;64295;44.772;39.872;2023-03-03T06:10:40;35.45;;;14.35;;
75682;SDS011;64295;44.772;39.872;2023-03-03T06:13:10;27.08;;;11.70;;
75682;SDS011;64295;44.772;39.872;2023-03-03T06:15:35;28.35;;;11.27;;
75682;SDS011;64295;44.772;39.872;2023-03-03T06:18:02;26.67;;;12.73;;
75682;SDS011;64295;44.772;39.872;2023-03-03T06:20:28;31.33;;;13.73;;
75682;SDS011;64295;44.772;39.872;2023-03-03T06:22:54;28.40;;;12.57;;
75682;SDS011;64295;44.772;39.872;2023-03-03T06:25:19;29.95;;;12.25;;
75682;SDS011;64295;44.772;39.872;2023-03-03T06:27:45;36.53;;;14.32;;
75682;SDS011;64295;44.772;39.872;2023-03-03T06:30:11;34.13;;;15.52;;
75682;SDS011;64295;44.772;39.872;2023-03-03T06:32:45;37.75;;;15.50;;
75682;SDS011;64295;44.772;39.872;2023-03-03T06:35:11;40.40;;;18.27;;
75682;SDS011;64295;44.772;39.872;2023-03-03T06:37:37;32.28;;;12.90;;
75682;SDS011;64295;44.772;39.872;2023-03-03T06:40:03;24.75;;;10.32;;
75682;SDS011;64295;44.772;39.872;2023-03-03T06:42:30;25.52;;;11.10;;
75682;SDS011;64295;44.772;39.872;2023-03-03T06:44:55;22.25;;;11.93;;
75682;SDS011;64295;44.772;39.872;2023-03-03T06:47:21;17.42;;;7.70;;
75682;SDS011;64295;44.772;39.872;2023-03-03T06:49:47;21.40;;;7.65;;
75682;SDS011;64295;44.772;39.872;2023-03-03T06:52:14;22.95;;;9.18;;
75682;SDS011;64295;44.772;39.872;2023-03-03T06:54:45;24.70;;;9.48;;
75682;SDS011;64295;44.772;39.872;2023-03-03T06:57:32;23.33;;;10.38;;
75682;SDS011;64295;44.772;39.872;2023-03-03T07:00:01;14.55;;;7.10;;
75682;SDS011;64295;44.772;39.872;2023-03-03T07:02:40;19.52;;;9.45;;
75682;SDS011;64295;44.772;39.872;2023-03-03T07:05:10;14.80;;;7.43;;
75682;SDS011;64295;44.772;39.872;2023-03-03T07:07:40;16.33;;;7.55;;
75682;SDS011;64295;44.772;39.872;2023-03-03T07:10:11;13.55;;;6.72;;
75682;SDS011;64295;44.772;39.872;2023-03-03T07:12:49;15.70;;;7.03;;
75682;SDS011;64295;44.772;39.872;2023-03-03T07:15:16;14.57;;;6.88;;
75682;SDS011;64295;44.772;39.872;2023-03-03T07:17:58;16.77;;;8.80;;
75682;SDS011;64295;44.772;39.872;2023-03-03T07:20:45;16.15;;;6.93;;
75682;SDS011;64295;44.772;39.872;2023-03-03T07:23:23;19.33;;;7.63;;
75682;SDS011;64295;44.772;39.872;2023-03-03T07:25:54;13.68;;;6.53;;
75682;SDS011;64295;44.772;39.872;2023-03-03T07:30:51;14.50;;;6.78;;
75682;SDS011;64295;44.772;39.872;2023-03-03T07:35:50;12.23;;;5.78;;
75682;SDS011;64295;44.772;39.872;2023-03-03T07:38:22;12.88;;;5.85;;
75682;SDS011;64295;44.772;39.872;2023-03-03T07:40:50;13.15;;;6.85;;
75682;SDS011;64295;44.772;39.872;2023-03-03T07:43:36;13.25;;;5.53;;
75682;SDS011;64295;44.772;39.872;2023-03-03T07:46:22;12.30;;;5.90;;
75682;SDS011;64295;44.772;39.872;2023-03-03T07:48:54;13.43;;;5.90;;
75682;SDS011;64295;44.772;39.872;2023-03-03T07:51:25;12.02;;;5.65;;
75682;SDS011;64295;44.772;39.872;2023-03-03T07:53:54;13.80;;;6.90;;
75682;SDS011;64295;44.772;39.872;2023-03-03T07:56:39;10.02;;;5.35;;
75682;SDS011;64295;44.772;39.872;2023-03-03T07:59:26;10.35;;;5.40;;
75682;SDS011;64295;44.772;39.872;2023-03-03T08:01:52;10.95;;;6.30;;
75682;SDS011;64295;44.772;39.872;2023-03-03T08:04:22;12.18;;;5.88;;
75682;SDS011;64295;44.772;39.872;2023-03-03T08:06:56;15.02;;;6.28;;
75682;SDS011;64295;44.772;39.872;2023-03-03T08:09:29;11.43;;;5.88;;
75682;SDS011;64295;44.772;39.872;2023-03-03T08:14:56;16.63;;;6.43;;
75682;SDS011;64295;44.772;39.872;2023-03-03T08:17:35;13.25;;;6.65;;
75682;SDS011;64295;44.772;39.872;2023-03-03T08:23:02;11.07;;;6.07;;
75682;SDS011;64295;44.772;39.872;2023-03-03T08:25:28;12.15;;;6.38;;
75682;SDS011;64295;44.772;39.872;2023-03-03T08:27:54;10.90;;;5.90;;
75682;SDS011;64295;44.772;39.872;2023-03-03T08:30:19;17.08;;;7.45;;
75682;SDS011;64295;44.772;39.872;2023-03-03T08:32:45;23.25;;;12.23;;
75682;SDS011;64295;44.772;39.872;2023-03-03T08:35:11;13.27;;;6.57;;
75682;SDS011;64295;44.772;39.872;2023-03-03T08:37:37;12.43;;;6.88;;
75682;SDS011;64295;44.772;39.872;2023-03-03T08:40:03;12.95;;;5.75;;
75682;SDS011;64295;44.772;39.872;2023-03-03T08:42:29;16.42;;;6.70;;
75682;SDS011;64295;44.772;39.872;2023-03-03T08:44:55;13.35;;;6.70;;
75682;SDS011;64295;44.772;39.872;2023-03-03T08:47:21;13.95;;;7.35;;
75682;SDS011;64295;44.772;39.872;2023-03-03T08:49:47;11.15;;;6.07;;
75682;SDS011;64295;44.772;39.872;2023-03-03T08:52:13;12.23;;;5.50;;
75682;SDS011;64295;44.772;39.872;2023-03-03T08:54:39;11.77;;;6.38;;
75682;SDS011;64295;44.772;39.872;2023-03-03T08:57:04;10.38;;;5.35;;
75682;SDS011;64295;44.772;39.872;2023-03-03T08:59:30;12.32;;;6.72;;
75682;SDS011;64295;44.772;39.872;2023-03-03T09:02:02;13.75;;;5.65;;
75682;SDS011;64295;44.772;39.872;2023-03-03T09:04:28;12.90;;;5.40;;
75682;SDS011;64295;44.772;39.872;2023-03-03T09:06:54;10.35;;;5.10;;
75682;SDS011;64295;44.772;39.872;2023-03-03T09:09:20;11.13;;;5.55;;
75682;SDS011;64295;44.772;39.872;2023-03-03T09:11:45;10.95;;;5.85;;
75682;SDS011;64295;44.772;39.872;2023-03-03T09:14:15;11.15;;;5.28;;
75682;SDS011;64295;44.772;39.872;2023-03-03T09:16:49;11.55;;;5.25;;
75682;SDS011;64295;44.772;39.872;2023-03-03T09:19:26;9.45;;;5.03;;
75682;SDS011;64295;44.772;39.872;2023-03-03T09:24:49;11.70;;;6.22;;
75682;SDS011;64295;44.772;39.872;2023-03-03T09:29:54;9.45;;;4.85;;
75682;SDS011;64295;44.772;39.872;2023-03-03T09:32:30;10.40;;;5.70;;
75682;SDS011;64295;44.772;39.872;2023-03-03T09:35:00;12.52;;;6.13;;
75682;SDS011;64295;44.772;39.872;2023-03-03T09:37:59;11.80;;;5.57;;
75682;SDS011;64295;44.772;39.872;2023-03-03T09:43:08;13.23;;;6.28;;
75682;SDS011;64295;44.772;39.872;2023-03-03T09:45:43;11.93;;;6.05;;
75682;SDS011;64295;44.772;39.872;2023-03-03T09:51:22;10.52;;;4.75;;
75682;SDS011;64295;44.772;39.872;2023-03-03T09:54:24;15.25;;;4.88;;
75682;SDS011;64295;44.772;39.872;2023-03-03T09:57:37;8.82;;;4.82;;
75682;SDS011;64295;44.772;39.872;2023-03-03T10:11:12;10.75;;;5.38;;
75682;SDS011;64295;44.772;39.872;2023-03-03T10:13:45;10.85;;;5.50;;
75682;SDS011;64295;44.772;39.872;2023-03-03T10:19:40;10.70;;;6.30;;
75682;SDS011;64295;44.772;39.872;2023-03-03T10:22:19;9.20;;;5.00;;
75682;SDS011;64295;44.772;39.872;2023-03-03T10:27:56;9.85;;;4.60;;
75682;SDS011;64295;44.772;39.872;2023-03-03T10:44:22;8.80;;;4.60;;
75682;SDS011;64295;44.772;39.872;2023-03-03T10:58:02;11.45;;;5.47;;
75682;SDS011;64295;44.772;39.872;2023-03-03T11:06:00;12.02;;;5.47;;
75682;SDS011;64295;44.772;39.872;2023-03-03T11:08:35;9.57;;;5.47;;
75682;SDS011;64295;44.772;39.872;2023-03-03T11:11:31;10.80;;;5.88;;
75682;SDS011;64295;44.772;39.872;2023-03-03T11:14:12;12.57;;;5.90;;
75682;SDS011;64295;44.772;39.872;2023-03-03T11:17:23;12.43;;;6.35;;
75682;SDS011;64295;44.772;39.872;2023-03-03T11:23:03;8.82;;;5.35;;
75682;SDS011;64295;44.772;39.872;2023-03-03T11:25:45;8.45;;;4.68;;
75682;SDS011;64295;44.772;39.872;2023-03-03T11:34:00;9.82;;;5.25;;
75682;SDS011;64295;44.772;39.872;2023-03-03T11:36:51;9.90;;;5.78;;
75682;SDS011;64295;44.772;39.872;2023-03-03T11:39:30;8.57;;;4.97;;
75682;SDS011;64295;44.772;39.872;2023-03-03T11:44:48;7.97;;;4.80;;
75682;SDS011;64295;44.772;39.872;2023-03-03T11:47:23;15.20;;;5.95;;
75682;SDS011;64295;44.772;39.872;2023-03-03T11:55:26;14.05;;;5.68;;
75682;SDS011;64295;44.772;39.872;2023-03-03T11:58:03;13.30;;;6.63;;
75682;SDS011;64295;44.772;39.872;2023-03-03T12:06:02;10.45;;;5.47;;
75682;SDS011;64295;44.772;39.872;2023-03-03T12:14:46;10.27;;;5.22;;
75682;SDS011;64295;44.772;39.872;2023-03-03T12:22:47;9.70;;;4.78;;
75682;SDS011;64295;44.772;39.872;2023-03-03T12:36:24;8.25;;;4.95;;
75682;SDS011;64295;44.772;39.872;2023-03-03T12:39:24;9.98;;;4.68;;
75682;SDS011;64295;44.772;39.872;2023-03-03T12:42:22;9.80;;;5.38;;
75682;SDS011;64295;44.772;39.872;2023-03-03T12:47:39;9.68;;;5.18;;
75682;SDS011;64295;44.772;39.872;2023-03-03T13:00:39;7.35;;;4.78;;
75682;SDS011;64295;44.772;39.872;2023-03-03T13:13:48;8.60;;;4.88;;
75682;SDS011;64295;44.772;39.872;2023-03-03T13:16:38;11.48;;;5.22;;
75682;SDS011;64295;44.772;39.872;2023-03-03T13:19:17;10.38;;;4.57;;
75682;SDS011;64295;44.772;39.872;2023-03-03T13:27:24;6.72;;;4.55;;
75682;SDS011;64295;44.772;39.872;2023-03-03T13:30:00;7.22;;;4.57;;
75682;SDS011;64295;44.772;39.872;2023-03-03T13:32:37;8.75;;;4.53;;
75682;SDS011;64295;44.772;39.872;2023-03-03T13:35:08;7.75;;;4.15;;
75682;SDS011;64295;44.772;39.872;2023-03-03T13:37:43;7.93;;;4.35;;
75682;SDS011;64295;44.772;39.872;2023-03-03T13:48:02;8.18;;;4.88;;
75682;SDS011;64295;44.772;39.872;2023-03-03T13:50:57;9.90;;;5.50;;
75682;SDS011;64295;44.772;39.872;2023-03-03T13:53:39;9.80;;;5.10;;
75682;SDS011;64295;44.772;39.872;2023-03-03T13:59:13;14.07;;;5.53;;
75682;SDS011;64295;44.772;39.872;2023-03-03T14:04:28;7.72;;;4.70;;
75682;SDS011;64295;44.772;39.872;2023-03-03T14:07:04;10.95;;;4.95;;
75682;SDS011;64295;44.772;39.872;2023-03-03T14:09:50;11.90;;;6.18;;
75682;SDS011;64295;44.772;39.872;2023-03-03T14:12:41;18.60;;;8.90;;
75682;SDS011;64295;44.772;39.872;2023-03-03T14:15:21;24.83;;;10.00;;
75682;SDS011;64295;44.772;39.872;2023-03-03T14:20:28;17.40;;;8.05;;
75682;SDS011;64295;44.772;39.872;2023-03-03T14:25:50;14.75;;;7.28;;
75682;SDS011;64295;44.772;39.872;2023-03-03T14:28:20;16.50;;;7.68;;
75682;SDS011;64295;44.772;39.872;2023-03-03T14:30:48;18.92;;;8.25;;
75682;SDS011;64295;44.772;39.872;2023-03-03T14:33:17;11.75;;;6.28;;
75682;SDS011;64295;44.772;39.872;2023-03-03T14:35:50;12.25;;;5.60;;
75682;SDS011;64295;44.772;39.872;2023-03-03T14:41:33;13.65;;;6.90;;
75682;SDS011;64295;44.772;39.872;2023-03-03T14:44:03;23.65;;;8.93;;
75682;SDS011;64295;44.772;39.872;2023-03-03T14:49:55;72.55;;;24.15;;
75682;SDS011;64295;44.772;39.872;2023-03-03T14:52:32;63.63;;;25.08;;
75682;SDS011;64295;44.772;39.872;2023-03-03T14:54:59;52.90;;;21.27;;
75682;SDS011;64295;44.772;39.872;2023-03-03T15:02:37;29.92;;;12.98;;
